McGaffey, New Mexico
Current Conditions -  °F | °C
As of 4:53 PM on Saturday 25 Oct 2014 (Local Time) from KGUP Reporting Station
Clear Clear  
Wind Chill: 73°   Ceiling: Unl
Heat Index: 73°   Visibility: 10mi
Dew Point: 35°   Wind: 12mph
Humidity: 25%   Direction: 250°WSW
Pressure: 30.27"   Gusts: 22mph
Location:  35.4212°N, 108.53°W
Report Text: KGUP 252253Z AUTO 25010G19KT 10SM CLR 23/02 A3027 RMK AO2 SLP157 T02280017
Loading
Personal Weather Stations






























Interactive Weather Map
Tropical Storm Tracking
New forecast layout! Learn more

10-Day Weather Forecast

Advertisements
Track Severe Weather on mobile